Terminal Aerodrome Forecast
Issued by NWS Tulsa, OK

Home | Current Version | Previous Version | Text Only | Print | Product List | Glossary On
Versions: 1 2 3 4 5 6 7 8 9 10 11 12 13 14 15 16 17 18 19 20 21 22 23 24 25 26 27 28 29 30 31 32 33 34 35
000
FTPQ31 PGUM 262339
TAFGUM
TAF

TAF
PTSA 262339Z 2700/2724 11011KT P6SM VCSH SCT017 BKN120
      TEMPO 2701/2705 4SM SHRA BKN017 OVC120=

USA.gov is the U.S. government's official web portal to all federal, state and local government web resources and services.